Time;durP1;ratioP1;P1;durP2;ratioP2;P2;SDS_P1;SDS_P2;PMS_P1;PMS_P2;Temp;Humidity;BMP_temperature;BMP_pressure;BME280_temperature;BME280_humidity;BME280_pressure;Samples;Min_cycle;Max_cycle;Signal;HPM_P1;HPM_P2
2021/08/13 00:01:26;;;;;;;8.63;5.00;;;20.00;91.60;;;;;;5054258;28;20025;-76
2021/08/13 00:03:51;;;;;;;10.48;4.72;;;19.90;91.50;;;;;;5054794;28;20040;-76
2021/08/13 00:06:17;;;;;;;9.20;4.93;;;19.90;91.50;;;;;;5053865;28;20342;-76
2021/08/13 00:08:43;;;;;;;8.52;4.57;;;19.90;91.50;;;;;;5054928;28;20048;-76
2021/08/13 00:11:08;;;;;;;10.00;4.63;;;20.00;91.50;;;;;;5054010;28;20021;-76
2021/08/13 00:13:34;;;;;;;6.32;3.92;;;20.00;91.40;;;;;;5054738;28;20120;-77
2021/08/13 00:16:00;;;;;;;6.93;4.03;;;20.00;91.40;;;;;;5053361;28;20360;-77
2021/08/13 00:18:25;;;;;;;6.57;3.90;;;20.00;91.30;;;;;;5053957;28;20048;-76
2021/08/13 00:20:51;;;;;;;7.75;4.30;;;19.90;91.30;;;;;;5054616;28;20024;-77
2021/08/13 00:23:17;;;;;;;9.00;4.65;;;20.00;91.40;;;;;;5053781;28;20108;-77
2021/08/13 00:25:43;;;;;;;8.52;4.20;;;19.90;91.30;;;;;;5054315;28;20511;-76
2021/08/13 00:28:08;;;;;;;8.63;4.93;;;19.90;91.30;;;;;;5052062;28;20045;-76
2021/08/13 00:30:34;;;;;;;7.63;3.88;;;19.90;91.40;;;;;;5053471;28;20449;-76
2021/08/13 00:33:00;;;;;;;7.70;4.03;;;19.80;91.40;;;;;;5054156;28;20025;-76
2021/08/13 00:35:26;;;;;;;6.57;3.80;;;19.80;91.50;;;;;;5053052;28;20025;-76
2021/08/13 00:37:51;;;;;;;7.10;4.13;;;19.70;91.50;;;;;;5053303;28;20057;-77
2021/08/13 00:40:17;;;;;;;8.20;4.50;;;19.70;91.60;;;;;;5052821;28;20016;-76
2021/08/13 00:42:43;;;;;;;8.50;4.40;;;19.70;91.60;;;;;;5053345;28;20111;-76
2021/08/13 00:45:09;;;;;;;5.78;3.47;;;19.70;91.60;;;;;;5052986;28;20445;-76
2021/08/13 00:47:35;;;;;;;9.07;4.90;;;19.70;91.60;;;;;;5053405;28;20096;-75
2021/08/13 00:50:01;;;;;;;6.45;4.05;;;19.60;91.60;;;;;;5054281;28;20051;-76
2021/08/13 00:52:27;;;;;;;9.98;4.65;;;19.60;91.60;;;;;;5053316;28;20025;-76
2021/08/13 00:54:53;;;;;;;8.35;3.95;;;19.60;91.60;;;;;;5053612;28;20079;-76
2021/08/13 00:57:19;;;;;;;6.82;4.22;;;19.60;91.60;;;;;;5053321;28;20013;-76
2021/08/13 00:59:45;;;;;;;7.28;3.90;;;19.50;91.60;;;;;;5053859;28;20021;-76
2021/08/13 01:02:11;;;;;;;8.48;4.45;;;19.50;91.70;;;;;;5053018;28;20073;-76
2021/08/13 01:04:38;;;;;;;6.88;4.18;;;19.60;91.70;;;;;;5053895;28;20021;-77
2021/08/13 01:07:07;;;;;;;6.68;3.92;;;19.50;91.70;;;;;;5052311;28;20342;-77
2021/08/13 01:09:35;;;;;;;7.25;4.10;;;19.50;91.80;;;;;;5052965;28;20021;-77
2021/08/13 01:12:09;;;;;;;5.30;3.75;;;19.50;91.70;;;;;;5053596;28;20017;-77
2021/08/13 01:14:53;;;;;;;8.35;4.72;;;19.50;91.70;;;;;;5053270;28;20075;-77
2021/08/13 01:17:22;;;;;;;7.18;3.78;;;19.50;91.70;;;;;;5052814;28;20109;-76
2021/08/13 01:19:59;;;;;;;7.78;4.30;;;19.50;91.70;;;;;;5053223;28;20458;-76
2021/08/13 01:22:29;;;;;;;7.28;4.00;;;19.50;91.70;;;;;;5052533;28;20040;-76
2021/08/13 01:24:57;;;;;;;7.07;3.88;;;19.50;91.70;;;;;;5053209;28;20079;-77
2021/08/13 01:27:34;;;;;;;7.78;4.18;;;19.50;91.70;;;;;;5056166;28;20041;-77
2021/08/13 01:30:04;;;;;;;6.82;3.95;;;19.50;91.70;;;;;;5053525;28;20493;-75
2021/08/13 01:32:39;;;;;;;6.07;3.60;;;19.60;91.70;;;;;;5051163;28;20060;-77
2021/08/13 01:35:07;;;;;;;6.95;3.75;;;19.60;91.60;;;;;;5051853;28;20115;-77
2021/08/13 01:37:39;;;;;;;8.23;4.25;;;19.60;91.60;;;;;;5052439;28;20487;-76
2021/08/13 01:40:08;;;;;;;6.15;3.63;;;19.60;91.50;;;;;;5053149;28;20017;-77
2021/08/13 01:42:34;;;;;;;6.20;3.58;;;19.70;91.50;;;;;;5050929;28;20052;-76
2021/08/13 01:45:03;;;;;;;5.40;3.10;;;19.70;91.50;;;;;;5052679;28;20345;-77
2021/08/13 01:47:30;;;;;;;6.63;3.33;;;19.70;91.40;;;;;;5052303;28;20082;-76
2021/08/13 01:49:56;;;;;;;6.57;3.72;;;19.70;91.50;;;;;;5052860;28;20473;-76
2021/08/13 01:52:23;;;;;;;8.48;4.13;;;19.70;91.50;;;;;;5050881;28;20453;-76
2021/08/13 01:54:50;;;;;;;8.63;3.55;;;19.60;91.50;;;;;;5052746;28;20032;-76
2021/08/13 01:57:16;;;;;;;8.50;3.88;;;19.50;91.60;;;;;;5050752;28;20020;-76
2021/08/13 01:59:43;;;;;;;5.28;3.70;;;19.50;91.60;;;;;;5052437;28;20100;-76
2021/08/13 02:02:09;;;;;;;6.28;3.80;;;19.50;91.70;;;;;;5052605;28;20025;-76
2021/08/13 02:04:35;;;;;;;6.35;3.45;;;19.40;91.70;;;;;;5052011;28;20029;-77
2021/08/13 02:07:02;;;;;;;7.10;3.83;;;19.40;91.80;;;;;;5052651;28;20021;-76
2021/08/13 02:09:28;;;;;;;6.32;3.47;;;19.40;91.70;;;;;;5051915;28;20445;-76
2021/08/13 02:11:54;;;;;;;6.82;3.95;;;19.40;91.80;;;;;;5052188;28;20022;-76
2021/08/13 02:14:20;;;;;;;6.43;3.67;;;19.40;91.80;;;;;;5050478;28;20025;-75
2021/08/13 02:16:51;;;;;;;8.65;3.85;;;19.40;91.80;;;;;;5052413;28;20039;-76
2021/08/13 02:19:35;;;;;;;7.70;4.03;;;19.40;91.90;;;;;;5051538;28;20017;-76
2021/08/13 02:22:01;;;;;;;6.40;3.80;;;19.30;91.90;;;;;;5051061;28;20017;-76
2021/08/13 02:24:27;;;;;;;5.45;3.35;;;19.30;91.90;;;;;;5051694;28;20035;-76
2021/08/13 02:26:54;;;;;;;7.00;3.80;;;19.30;91.90;;;;;;5051654;28;20520;-78
2021/08/13 02:29:21;;;;;;;7.00;3.92;;;19.30;92.00;;;;;;5051720;28;20457;-78
2021/08/13 02:31:48;;;;;;;7.53;3.83;;;19.30;92.00;;;;;;5052297;28;20009;-75
2021/08/13 02:34:13;;;;;;;9.07;4.05;;;19.30;92.00;;;;;;5052204;28;20088;-76
2021/08/13 02:36:47;;;;;;;6.47;3.42;;;19.30;92.00;;;;;;5051734;28;20121;-75
2021/08/13 02:39:39;;;;;;;7.35;4.22;;;19.20;92.00;;;;;;5050966;28;20013;-76
2021/08/13 02:42:07;;;;;;;6.57;3.83;;;19.30;92.00;;;;;;5051931;28;20514;-76
2021/08/13 02:44:36;;;;;;;6.70;3.78;;;19.20;92.00;;;;;;5050223;28;20179;-76
2021/08/13 02:47:09;;;;;;;6.00;3.35;;;19.30;92.00;;;;;;5051818;28;20021;-76
2021/08/13 02:49:41;;;;;;;7.55;4.00;;;19.30;92.00;;;;;;5051341;28;20480;-76
2021/08/13 02:52:08;;;;;;;6.15;3.42;;;19.30;92.00;;;;;;5052071;28;20017;-76
2021/08/13 02:54:35;;;;;;;6.38;3.30;;;19.20;92.10;;;;;;5054845;28;20021;-76
2021/08/13 02:57:02;;;;;;;7.47;3.70;;;19.20;92.10;;;;;;5055677;28;20025;-75
2021/08/13 02:59:31;;;;;;;5.90;3.35;;;19.20;92.10;;;;;;5054723;28;20074;-76
2021/08/13 03:01:59;;;;;;;6.22;3.60;;;19.20;92.10;;;;;;5054973;28;20019;-76
2021/08/13 03:04:29;;;;;;;6.43;3.60;;;19.20;92.20;;;;;;5054671;28;20025;-76
2021/08/13 03:06:55;;;;;;;9.88;4.03;;;19.10;92.20;;;;;;5055103;28;20060;-75
2021/08/13 03:09:23;;;;;;;5.78;3.25;;;19.10;92.20;;;;;;5054428;28;20021;-76
2021/08/13 03:11:50;;;;;;;7.68;4.13;;;19.10;92.30;;;;;;5053796;28;20230;-75
2021/08/13 03:14:16;;;;;;;6.63;3.80;;;19.00;92.30;;;;;;5055090;28;20088;-75
2021/08/13 03:16:43;;;;;;;6.35;3.78;;;19.00;92.30;;;;;;5054749;28;20017;-76
2021/08/13 03:19:10;;;;;;;7.50;3.63;;;19.00;92.30;;;;;;5053767;28;20044;-75
2021/08/13 03:21:36;;;;;;;7.22;3.83;;;19.00;92.30;;;;;;5055397;28;20021;-76
2021/08/13 03:24:02;;;;;;;7.88;4.45;;;19.00;92.30;;;;;;5055510;28;20082;-78
2021/08/13 03:26:29;;;;;;;7.22;3.42;;;19.00;92.30;;;;;;5054803;28;20077;-75
2021/08/13 03:28:55;;;;;;;6.05;3.78;;;19.00;92.40;;;;;;5055633;28;20039;-75
2021/08/13 03:31:56;;;;;;;6.65;3.58;;;19.00;92.40;;;;;;5053487;28;20448;-76
2021/08/13 03:34:22;;;;;;;6.40;3.65;;;19.00;92.40;;;;;;5043037;28;20060;-78
2021/08/13 03:36:48;;;;;;;6.18;3.70;;;18.90;92.40;;;;;;5055105;28;20025;-76
2021/08/13 03:39:13;;;;;;;7.72;4.15;;;19.00;92.40;;;;;;5055274;28;20024;-75
2021/08/13 03:41:39;;;;;;;7.32;3.78;;;18.90;92.30;;;;;;5054680;28;20033;-75
2021/08/13 03:44:05;;;;;;;8.30;4.63;;;18.90;92.40;;;;;;5055244;28;20047;-76
2021/08/13 03:46:31;;;;;;;6.55;3.80;;;18.90;92.40;;;;;;5054372;28;20021;-76
2021/08/13 03:48:57;;;;;;;7.32;3.88;;;18.90;92.40;;;;;;5054127;28;20360;-75
2021/08/13 03:51:22;;;;;;;7.20;3.70;;;18.80;92.40;;;;;;5055403;28;20048;-75
2021/08/13 03:53:49;;;;;;;6.97;4.25;;;18.80;92.40;;;;;;5056575;28;20029;-75
2021/08/13 03:56:15;;;;;;;9.90;4.18;;;18.80;92.40;;;;;;5055214;28;20009;-78
2021/08/13 03:58:41;;;;;;;7.13;4.07;;;18.80;92.40;;;;;;5054344;28;20105;-75
2021/08/13 04:01:08;;;;;;;7.65;3.95;;;18.80;92.50;;;;;;5055002;28;20053;-78
2021/08/13 04:03:34;;;;;;;7.00;3.75;;;18.70;92.60;;;;;;5053187;28;20079;-76
2021/08/13 04:05:59;;;;;;;7.72;4.13;;;18.70;92.60;;;;;;5054485;28;20421;-76
2021/08/13 04:08:25;;;;;;;8.07;4.20;;;18.70;92.60;;;;;;5054284;28;20078;-77
2021/08/13 04:10:51;;;;;;;9.05;4.40;;;18.70;92.60;;;;;;5054811;28;20025;-77
2021/08/13 04:13:17;;;;;;;10.00;5.00;;;18.80;92.60;;;;;;5054694;28;20028;-76
2021/08/13 04:15:44;;;;;;;11.48;4.55;;;18.80;92.50;;;;;;5053961;28;20016;-77
2021/08/13 04:18:10;;;;;;;9.23;5.05;;;18.80;92.50;;;;;;5052968;28;20495;-77
2021/08/13 04:20:36;;;;;;;9.02;4.97;;;18.80;92.50;;;;;;5053731;28;20025;-77
2021/08/13 04:23:01;;;;;;;9.88;5.72;;;18.80;92.50;;;;;;5054449;28;20029;-76
2021/08/13 04:25:27;;;;;;;8.55;4.88;;;18.80;92.40;;;;;;5053769;28;20092;-75
2021/08/13 04:27:53;;;;;;;9.40;4.80;;;18.90;92.40;;;;;;5054019;28;20504;-76
2021/08/13 04:30:19;;;;;;;9.30;4.75;;;18.90;92.30;;;;;;5054361;28;20017;-76
2021/08/13 04:32:45;;;;;;;9.25;5.20;;;18.90;92.30;;;;;;5053442;28;20471;-76
2021/08/13 04:35:11;;;;;;;8.45;5.25;;;18.90;92.40;;;;;;5054277;28;20020;-76
2021/08/13 04:37:36;;;;;;;8.63;5.03;;;18.90;92.30;;;;;;5053583;28;20077;-77
2021/08/13 04:40:03;;;;;;;16.58;6.50;;;19.00;92.30;;;;;;5053712;28;20488;-77
2021/08/13 04:42:29;;;;;;;11.48;6.47;;;19.00;92.20;;;;;;5058684;28;20545;-77
2021/08/13 04:44:54;;;;;;;11.77;6.05;;;19.10;92.20;;;;;;5053277;28;20100;-78
2021/08/13 04:47:20;;;;;;;13.48;6.07;;;19.10;92.10;;;;;;5053384;28;20025;-78
2021/08/13 04:49:46;;;;;;;12.45;6.28;;;19.10;92.10;;;;;;5052877;28;20017;-78
2021/08/13 04:52:12;;;;;;;10.27;5.85;;;19.10;92.10;;;;;;5052269;28;20083;-78
2021/08/13 04:54:37;;;;;;;10.05;5.50;;;19.20;92.10;;;;;;5051472;28;20024;-78
2021/08/13 04:57:03;;;;;;;11.20;6.03;;;19.20;92.10;;;;;;5053286;28;20033;-78
2021/08/13 04:59:29;;;;;;;13.40;6.13;;;19.20;92.10;;;;;;5052290;28;20028;-76
2021/08/13 05:01:54;;;;;;;12.20;6.35;;;19.10;92.10;;;;;;5053646;28;20044;-78
2021/08/13 05:04:20;;;;;;;11.25;5.80;;;19.20;92.20;;;;;;5063460;28;20021;-78
2021/08/13 05:06:46;;;;;;;11.52;6.30;;;19.20;92.10;;;;;;5057382;28;20099;-78
2021/08/13 05:09:12;;;;;;;12.10;6.88;;;19.20;92.10;;;;;;5053686;28;20039;-78
2021/08/13 05:11:37;;;;;;;11.23;5.97;;;19.20;92.10;;;;;;5051918;28;20025;-78
2021/08/13 05:14:04;;;;;;;11.57;6.25;;;19.20;92.20;;;;;;5051637;28;20036;-78
2021/08/13 05:16:30;;;;;;;11.15;6.10;;;19.20;92.20;;;;;;5052009;28;20029;-77
2021/08/13 05:18:56;;;;;;;10.75;6.47;;;19.20;92.20;;;;;;5052667;28;20021;-78
2021/08/13 05:21:22;;;;;;;13.45;6.45;;;19.20;92.20;;;;;;5050996;28;20092;-78
2021/08/13 05:23:48;;;;;;;12.23;6.75;;;19.30;92.30;;;;;;5051911;28;20512;-78
2021/08/13 05:26:14;;;;;;;13.38;7.60;;;19.30;92.20;;;;;;5052455;28;20049;-77
2021/08/13 05:28:40;;;;;;;14.48;6.95;;;19.40;92.20;;;;;;5052286;28;20102;-78
2021/08/13 05:31:06;;;;;;;16.23;7.95;;;19.40;92.20;;;;;;5053286;28;20457;-76
2021/08/13 05:33:31;;;;;;;17.23;7.90;;;19.40;92.10;;;;;;5052753;28;20487;-77
2021/08/13 05:35:58;;;;;;;12.77;6.88;;;19.40;92.30;;;;;;5053328;28;20032;-78
2021/08/13 05:38:23;;;;;;;15.98;8.00;;;19.40;92.00;;;;;;5052882;28;20052;-77
2021/08/13 05:40:49;;;;;;;17.13;8.60;;;19.40;92.00;;;;;;5052227;28;20143;-76
2021/08/13 05:43:14;;;;;;;15.25;8.18;;;19.50;92.00;;;;;;5051664;28;20087;-76
2021/08/13 05:45:40;;;;;;;17.50;8.48;;;19.50;92.00;;;;;;5050854;28;20025;-75
2021/08/13 05:48:06;;;;;;;13.45;7.40;;;19.50;91.90;;;;;;5050918;28;20025;-75
2021/08/13 05:50:32;;;;;;;14.25;6.72;;;19.50;91.80;;;;;;5051790;28;20024;-75
2021/08/13 05:52:57;;;;;;;17.45;8.32;;;19.50;91.80;;;;;;5052777;28;20071;-76
2021/08/13 05:55:23;;;;;;;12.90;7.10;;;19.60;91.70;;;;;;5052782;28;20366;-77
2021/08/13 05:57:49;;;;;;;11.18;5.90;;;19.60;91.70;;;;;;5050512;28;20277;-77
2021/08/13 06:00:15;;;;;;;10.02;5.45;;;19.60;91.60;;;;;;5052571;28;20074;-78
2021/08/13 06:03:10;;;;;;;11.27;5.85;;;19.60;91.60;;;;;;5050625;28;20096;-76
2021/08/13 06:05:36;;;;;;;14.48;7.28;;;19.60;91.50;;;;;;5042866;28;20047;-76
2021/08/13 06:08:01;;;;;;;12.68;6.95;;;19.70;91.50;;;;;;5052468;28;20021;-77
2021/08/13 06:10:27;;;;;;;14.07;7.10;;;19.70;91.40;;;;;;5052752;28;20051;-77
2021/08/13 06:12:53;;;;;;;10.23;6.03;;;19.70;91.40;;;;;;5051813;28;20372;-77
2021/08/13 06:15:19;;;;;;;9.90;5.85;;;19.70;91.40;;;;;;5054321;28;20024;-77
2021/08/13 06:17:45;;;;;;;11.90;6.65;;;19.80;91.40;;;;;;5058146;28;20025;-77
2021/08/13 06:20:13;;;;;;;10.85;5.95;;;19.80;91.40;;;;;;5053212;28;20062;-77
2021/08/13 06:22:39;;;;;;;11.23;6.43;;;19.70;91.40;;;;;;5051607;28;20086;-77
2021/08/13 06:25:05;;;;;;;16.38;6.90;;;19.80;91.40;;;;;;5052242;28;20469;-77
2021/08/13 06:27:31;;;;;;;11.45;5.85;;;19.80;91.40;;;;;;5051188;28;20040;-78
2021/08/13 06:29:56;;;;;;;10.43;5.80;;;19.80;91.30;;;;;;5052076;28;20021;-77
2021/08/13 06:32:22;;;;;;;13.05;6.13;;;19.80;91.30;;;;;;5052407;28;20040;-77
2021/08/13 06:34:48;;;;;;;9.23;5.15;;;19.80;91.20;;;;;;5051391;28;20028;-76
2021/08/13 06:37:13;;;;;;;12.02;5.25;;;19.70;91.10;;;;;;5051995;28;20025;-76
2021/08/13 06:39:39;;;;;;;11.90;6.32;;;19.80;91.20;;;;;;5051633;28;20111;-77
2021/08/13 06:42:05;;;;;;;11.63;5.65;;;19.80;91.10;;;;;;5051451;28;20025;-76
2021/08/13 06:44:31;;;;;;;10.07;4.75;;;19.70;91.10;;;;;;5050515;28;20035;-76
2021/08/13 06:46:56;;;;;;;11.38;5.43;;;19.70;91.10;;;;;;5050002;28;20113;-76
2021/08/13 06:49:22;;;;;;;10.15;5.80;;;19.70;91.10;;;;;;5051688;28;20493;-76
2021/08/13 06:51:48;;;;;;;10.38;5.13;;;19.70;91.00;;;;;;5050982;28;20096;-76
2021/08/13 06:54:13;;;;;;;8.75;4.78;;;19.70;91.00;;;;;;5051825;28;20025;-76
2021/08/13 06:56:39;;;;;;;9.55;4.65;;;19.70;91.00;;;;;;5050720;28;20028;-76
2021/08/13 06:59:04;;;;;;;8.93;4.47;;;19.70;90.90;;;;;;5051503;28;20021;-76
2021/08/13 07:01:30;;;;;;;8.40;5.18;;;19.80;90.90;;;;;;5052148;28;20029;-76
2021/08/13 07:03:56;;;;;;;9.68;4.30;;;19.80;90.90;;;;;;5051091;28;20114;-76
2021/08/13 07:06:21;;;;;;;9.68;4.93;;;19.90;90.80;;;;;;5051732;28;20071;-76
2021/08/13 07:08:47;;;;;;;9.27;4.72;;;19.90;90.70;;;;;;5051116;28;20028;-76
2021/08/13 07:11:13;;;;;;;10.30;4.95;;;19.90;90.70;;;;;;5051669;28;20032;-76
2021/08/13 07:13:38;;;;;;;10.80;4.95;;;20.00;90.80;;;;;;5051157;28;20025;-76
2021/08/13 07:16:04;;;;;;;10.68;5.20;;;20.00;90.80;;;;;;5051645;28;20358;-76
2021/08/13 07:18:30;;;;;;;12.57;5.63;;;20.00;90.70;;;;;;5051560;28;20419;-76
2021/08/13 07:20:56;;;;;;;8.00;4.03;;;20.00;90.70;;;;;;5050976;28;20025;-76
2021/08/13 07:23:21;;;;;;;13.05;5.72;;;20.10;90.60;;;;;;5051711;28;20399;-76
2021/08/13 07:25:47;;;;;;;14.13;6.13;;;20.10;90.60;;;;;;5050953;28;20021;-76
2021/08/13 07:28:12;;;;;;;11.55;5.45;;;20.10;90.60;;;;;;5051478;28;20094;-76
2021/08/13 07:30:38;;;;;;;10.40;5.65;;;20.10;90.60;;;;;;5050828;28;20021;-75
2021/08/13 07:33:04;;;;;;;11.65;5.30;;;20.10;90.50;;;;;;5051150;28;20025;-76
2021/08/13 07:35:29;;;;;;;9.30;5.10;;;20.10;90.60;;;;;;5050051;28;20111;-76
2021/08/13 07:37:55;;;;;;;10.75;5.85;;;20.00;90.60;;;;;;5049662;28;20021;-76
2021/08/13 07:40:21;;;;;;;12.73;4.78;;;20.00;90.70;;;;;;5055319;28;20138;-78
2021/08/13 07:42:46;;;;;;;11.02;4.80;;;20.00;90.70;;;;;;5054460;28;20484;-75
2021/08/13 07:45:12;;;;;;;11.93;5.80;;;20.10;90.70;;;;;;5055026;28;20029;-75
2021/08/13 07:47:39;;;;;;;10.18;4.50;;;20.10;90.80;;;;;;5052781;28;20045;-74
2021/08/13 07:50:06;;;;;;;9.13;4.45;;;20.10;90.80;;;;;;5055013;28;20111;-75
2021/08/13 07:52:32;;;;;;;10.98;4.88;;;20.10;90.80;;;;;;5055267;28;20060;-76
2021/08/13 07:54:57;;;;;;;9.55;4.90;;;20.10;91.10;;;;;;5054399;28;20060;-76
2021/08/13 07:57:23;;;;;;;9.82;4.60;;;20.10;90.80;;;;;;5054578;28;20057;-76
2021/08/13 07:59:49;;;;;;;10.02;5.07;;;20.20;90.80;;;;;;5054201;28;20060;-76
2021/08/13 08:02:15;;;;;;;10.05;4.90;;;20.10;90.80;;;;;;5053622;28;20028;-77
2021/08/13 08:04:41;;;;;;;11.27;4.60;;;20.20;90.80;;;;;;5053853;28;20028;-75
2021/08/13 08:07:06;;;;;;;11.40;5.45;;;20.20;90.80;;;;;;5054556;28;20032;-76
2021/08/13 08:09:32;;;;;;;9.63;4.82;;;20.20;90.80;;;;;;5054705;28;20362;-76
2021/08/13 08:11:57;;;;;;;9.30;4.88;;;20.20;90.80;;;;;;5053866;28;20104;-76
2021/08/13 08:14:23;;;;;;;9.10;4.60;;;20.20;90.80;;;;;;5054472;28;20384;-78
2021/08/13 08:16:49;;;;;;;9.73;5.32;;;20.20;90.90;;;;;;5053623;28;20021;-76
2021/08/13 08:19:15;;;;;;;15.27;6.10;;;20.20;90.90;;;;;;5054243;28;20029;-75
2021/08/13 08:21:43;;;;;;;12.82;6.50;;;20.20;90.90;;;;;;5053804;28;20029;-75
2021/08/13 08:24:09;;;;;;;11.07;5.20;;;20.30;90.90;;;;;;5053978;28;20058;-76
2021/08/13 08:26:35;;;;;;;11.65;5.85;;;20.40;90.80;;;;;;5054061;28;20100;-76
2021/08/13 08:29:01;;;;;;;10.55;4.43;;;20.40;90.70;;;;;;5053503;28;20032;-75
2021/08/13 08:31:26;;;;;;;9.82;5.30;;;20.50;90.60;;;;;;5054152;28;20024;-75
2021/08/13 08:33:52;;;;;;;13.05;5.70;;;20.50;90.60;;;;;;5053887;28;20033;-76
2021/08/13 08:36:17;;;;;;;12.15;5.70;;;20.60;90.50;;;;;;5053841;28;20033;-76
2021/08/13 08:38:43;;;;;;;12.90;5.88;;;20.70;90.50;;;;;;5053128;28;20057;-75
2021/08/13 08:41:09;;;;;;;11.82;6.30;;;20.70;90.50;;;;;;5053962;28;20046;-76
2021/08/13 08:43:35;;;;;;;8.35;4.05;;;20.70;90.40;;;;;;5054216;28;20025;-76
2021/08/13 08:46:01;;;;;;;9.50;4.68;;;20.70;90.40;;;;;;5056338;28;20185;-76
2021/08/13 08:48:36;;;;;;;7.40;3.97;;;20.80;90.30;;;;;;5054023;28;20025;-76
2021/08/13 08:51:03;;;;;;;8.30;3.72;;;20.80;90.30;;;;;;5051218;28;20128;-76
2021/08/13 08:53:30;;;;;;;10.23;4.43;;;20.80;90.30;;;;;;5053799;28;20029;-76
2021/08/13 08:55:57;;;;;;;6.85;2.97;;;20.80;90.20;;;;;;5051757;28;20416;-76
2021/08/13 08:58:24;;;;;;;10.38;4.80;;;20.80;90.30;;;;;;5053617;28;20017;-77
2021/08/13 09:00:50;;;;;;;8.57;4.85;;;20.90;90.10;;;;;;5053135;28;20021;-76
2021/08/13 09:03:19;;;;;;;10.23;3.92;;;20.90;90.10;;;;;;5053647;28;20037;-76
2021/08/13 09:05:46;;;;;;;7.13;3.83;;;20.90;90.20;;;;;;5052912;28;20025;-75
2021/08/13 09:08:12;;;;;;;9.50;4.70;;;21.00;90.10;;;;;;5053549;28;20025;-76
2021/08/13 09:10:40;;;;;;;7.25;3.40;;;21.00;90.10;;;;;;5053679;28;20017;-77
2021/08/13 09:13:08;;;;;;;6.75;3.78;;;21.10;90.10;;;;;;5052891;28;20079;-77
2021/08/13 09:15:36;;;;;;;7.57;4.07;;;21.10;89.80;;;;;;5053221;28;20380;-76
2021/08/13 09:18:14;;;;;;;8.27;3.35;;;21.20;89.60;;;;;;5052781;28;20017;-76
2021/08/13 09:20:44;;;;;;;5.45;2.90;;;21.20;89.30;;;;;;5053341;28;20029;-76
2021/08/13 09:23:26;;;;;;;9.77;3.97;;;21.20;89.10;;;;;;5053266;28;20366;-76
2021/08/13 09:25:57;;;;;;;5.38;3.20;;;21.20;88.60;;;;;;5051393;28;20021;-76
2021/08/13 09:28:48;;;;;;;6.90;3.30;;;21.30;88.40;;;;;;5053358;28;20118;-76
2021/08/13 09:31:17;;;;;;;6.63;2.60;;;21.40;88.10;;;;;;5053165;28;20021;-76
2021/08/13 09:33:47;;;;;;;7.18;3.15;;;21.50;87.80;;;;;;5053026;28;20032;-76
2021/08/13 09:36:13;;;;;;;6.85;3.33;;;21.60;87.30;;;;;;5053314;28;20070;-76
2021/08/13 09:38:39;;;;;;;7.07;3.63;;;21.70;86.70;;;;;;5053008;28;20071;-76
2021/08/13 09:41:14;;;;;;;5.85;3.05;;;21.70;86.40;;;;;;5052363;28;20469;-76
2021/08/13 09:43:54;;;;;;;5.43;3.08;;;21.80;86.00;;;;;;5052848;28;20029;-77
2021/08/13 09:46:19;;;;;;;4.68;2.97;;;21.90;85.90;;;;;;5052884;28;20107;-77
2021/08/13 09:48:45;;;;;;;5.97;3.45;;;21.90;85.60;;;;;;5052841;28;20119;-76
2021/08/13 09:51:33;;;;;;;5.80;3.10;;;21.90;85.30;;;;;;5051704;28;20453;-76
2021/08/13 09:54:00;;;;;;;5.47;3.15;;;21.90;85.10;;;;;;5051888;28;20083;-77
2021/08/13 09:56:35;;;;;;;7.28;3.15;;;21.90;85.10;;;;;;5051291;28;20461;-76
2021/08/13 09:59:20;;;;;;;8.65;3.30;;;21.90;84.70;;;;;;5051722;28;20475;-77
2021/08/13 10:01:48;;;;;;;5.85;3.33;;;21.90;84.90;;;;;;5052155;28;20443;-77
2021/08/13 10:04:16;;;;;;;5.22;3.22;;;21.90;84.80;;;;;;5052433;28;20029;-76
2021/08/13 10:06:43;;;;;;;8.25;4.30;;;21.80;84.70;;;;;;5052451;28;20025;-76
2021/08/13 10:09:26;;;;;;;7.28;3.88;;;21.70;84.70;;;;;;5051871;28;20013;-76
2021/08/13 10:12:05;;;;;;;5.78;3.45;;;21.70;85.00;;;;;;5052011;28;20025;-76
2021/08/13 10:14:41;;;;;;;8.23;3.65;;;21.80;85.00;;;;;;5052405;28;20481;-76
2021/08/13 10:17:10;;;;;;;4.82;2.85;;;21.90;84.50;;;;;;5051561;28;20230;-76
2021/08/13 10:19:41;;;;;;;4.72;2.50;;;21.90;83.70;;;;;;5051163;28;20021;-77
2021/08/13 10:22:07;;;;;;;5.38;2.88;;;21.90;82.60;;;;;;5050246;28;20044;-76
2021/08/13 10:24:35;;;;;;;6.75;2.90;;;21.80;82.40;;;;;;5052167;28;20032;-76
2021/08/13 10:27:02;;;;;;;5.25;2.85;;;21.80;81.10;;;;;;5051231;28;20053;-76
2021/08/13 10:29:28;;;;;;;6.03;2.65;;;21.90;80.80;;;;;;5052110;28;20513;-77
2021/08/13 10:31:58;;;;;;;6.10;2.83;;;21.80;80.30;;;;;;5051189;28;20029;-76
2021/08/13 10:34:24;;;;;;;6.75;3.00;;;21.90;79.80;;;;;;5052102;28;20029;-76
2021/08/13 10:36:50;;;;;;;7.53;3.42;;;21.90;79.20;;;;;;5050112;28;20029;-75
2021/08/13 10:39:20;;;;;;;6.55;2.83;;;21.90;78.60;;;;;;5052373;28;20025;-76
2021/08/13 10:41:49;;;;;;;4.65;2.38;;;22.00;78.20;;;;;;5051628;28;20460;-76
2021/08/13 10:44:18;;;;;;;7.25;3.00;;;22.00;77.70;;;;;;5051619;28;20090;-76
2021/08/13 10:46:46;;;;;;;7.38;3.08;;;22.10;77.00;;;;;;5051862;28;20128;-76
2021/08/13 10:49:18;;;;;;;8.18;3.10;;;22.00;76.80;;;;;;5050662;28;20473;-77
2021/08/13 10:51:44;;;;;;;5.50;2.80;;;22.00;75.90;;;;;;5051965;28;20049;-76
2021/08/13 10:54:14;;;;;;;5.68;2.72;;;22.00;75.20;;;;;;5051421;28;20075;-77
2021/08/13 10:56:44;;;;;;;8.35;2.40;;;21.80;75.10;;;;;;5051899;28;20063;-77
2021/08/13 10:59:11;;;;;;;8.10;3.20;;;21.80;75.50;;;;;;5051413;28;20279;-77
2021/08/13 11:02:09;;;;;;;4.72;2.65;;;21.80;75.30;;;;;;5051632;28;20092;-77
2021/08/13 11:04:46;;;;;;;8.55;3.00;;;21.90;75.20;;;;;;5051831;28;20463;-77
2021/08/13 11:07:13;;;;;;;9.43;3.03;;;22.00;75.30;;;;;;5051285;28;20055;-77
2021/08/13 11:09:39;;;;;;;6.78;2.95;;;22.10;75.00;;;;;;5053172;28;20097;-77
2021/08/13 11:12:15;;;;;;;6.70;2.45;;;22.20;74.90;;;;;;5053624;28;20025;-77
2021/08/13 11:14:52;;;;;;;4.53;2.47;;;22.30;74.80;;;;;;5054815;28;20091;-77
2021/08/13 11:17:44;;;;;;;6.47;2.47;;;22.40;74.80;;;;;;5054385;28;20068;-76
2021/08/13 11:20:15;;;;;;;7.43;2.40;;;22.60;74.70;;;;;;5054753;28;20075;-77
2021/08/13 11:22:42;;;;;;;5.93;2.58;;;22.80;74.30;;;;;;5055461;28;20044;-76
2021/08/13 11:25:10;;;;;;;3.78;2.10;;;22.90;74.10;;;;;;5054612;28;20029;-76
2021/08/13 11:27:36;;;;;;;6.65;2.72;;;23.00;74.00;;;;;;5055165;28;20044;-77
2021/08/13 11:30:04;;;;;;;6.03;2.33;;;23.00;73.70;;;;;;5041441;28;20025;-76
2021/08/13 11:32:33;;;;;;;6.00;2.30;;;23.20;73.50;;;;;;5033495;28;20025;-76
2021/08/13 11:35:02;;;;;;;7.10;2.50;;;23.20;73.00;;;;;;5034343;28;20052;-76
2021/08/13 11:37:31;;;;;;;3.83;1.90;;;23.20;72.40;;;;;;5034309;28;20374;-77
2021/08/13 11:40:21;;;;;;;3.45;2.03;;;23.20;71.70;;;;;;5033134;28;20144;-77
2021/08/13 11:42:49;;;;;;;6.97;2.22;;;23.20;71.30;;;;;;5027644;28;20516;-77
2021/08/13 11:45:15;;;;;;;4.05;1.98;;;23.20;70.80;;;;;;5034757;28;20496;-77
2021/08/13 11:47:48;;;;;;;3.58;1.63;;;23.20;70.80;;;;;;5035325;28;20022;-77
2021/08/13 11:50:16;;;;;;;3.50;1.75;;;23.20;70.80;;;;;;5034934;28;20037;-77
2021/08/13 11:52:50;;;;;;;4.68;1.98;;;23.40;70.60;;;;;;5017925;28;20358;-76
2021/08/13 11:55:20;;;;;;;4.30;1.95;;;23.40;69.90;;;;;;5034294;28;20111;-75
2021/08/13 11:57:46;;;;;;;5.38;1.83;;;23.40;69.60;;;;;;5034955;28;20018;-75
2021/08/13 12:00:22;;;;;;;3.35;1.75;;;23.50;69.70;;;;;;5033378;28;20022;-76
2021/08/13 12:02:55;;;;;;;4.72;1.60;;;23.50;69.20;;;;;;5033327;28;20034;-75
2021/08/13 12:05:20;;;;;;;5.47;1.85;;;23.50;69.00;;;;;;5034540;28;20029;-75
2021/08/13 12:07:57;;;;;;;3.08;1.45;;;23.50;68.80;;;;;;5034467;28;20029;-75
2021/08/13 12:10:23;;;;;;;2.90;1.42;;;23.50;68.70;;;;;;5034701;28;20025;-77
2021/08/13 12:12:49;;;;;;;4.07;1.58;;;23.50;68.50;;;;;;5034612;28;20307;-77
2021/08/13 12:15:25;;;;;;;3.88;1.55;;;23.60;68.00;;;;;;5034092;28;20113;-76
2021/08/13 12:17:54;;;;;;;3.15;1.38;;;23.60;67.90;;;;;;5034403;28;20021;-77
2021/08/13 12:20:19;;;;;;;2.78;1.40;;;23.70;67.30;;;;;;5033780;28;20025;-76
2021/08/13 12:22:45;;;;;;;2.53;1.20;;;23.80;66.80;;;;;;5034508;28;20033;-77
2021/08/13 12:25:12;;;;;;;5.15;1.50;;;23.90;66.30;;;;;;5031366;28;20029;-76
2021/08/13 12:27:39;;;;;;;3.75;1.40;;;24.10;65.70;;;;;;5032735;28;20128;-77
2021/08/13 12:30:15;;;;;;;3.33;1.48;;;24.10;65.30;;;;;;5033751;28;20018;-76
2021/08/13 12:32:43;;;;;;;3.38;1.40;;;24.10;64.70;;;;;;5032947;28;20381;-77
2021/08/13 12:35:11;;;;;;;2.90;1.15;;;24.20;64.90;;;;;;5033621;28;20026;-77
2021/08/13 12:37:39;;;;;;;2.45;1.13;;;24.20;64.40;;;;;;5034056;28;20100;-76
2021/08/13 12:40:06;;;;;;;5.45;1.63;;;24.20;64.60;;;;;;5033475;28;20029;-75
2021/08/13 12:42:33;;;;;;;3.05;0.93;;;24.20;63.90;;;;;;5033391;28;20052;-76
2021/08/13 12:45:00;;;;;;;2.88;1.20;;;24.20;63.80;;;;;;5032078;28;20112;-75
2021/08/13 12:47:26;;;;;;;2.92;1.23;;;24.20;63.40;;;;;;5034094;28;20028;-77